<?xml version="1.0" encoding="UTF-8" standalone="no" ?>
<gpx xmlns="http://www.topografix.com/GPX/1/1" xmlns:xsi="http://www.w3.org/2001/XMLSchema-instance" xsi:schemaLocation="http://www.topografix.com/GPX/1/1 http://www.topografix.com/GPX/1/1/gpx.xsd" version="1.1" creator="VisuGPX - https://www.visugpx.com">
  <metadata>
    <name>OMS CHENOVE Marche du vendredi 25 mai 2012</name>
    <desc><![CDATA[De Chamboeuf à Gevrey]]></desc>
  </metadata>
  <trk>
    <name><![CDATA[OMS CHENOVE Marche du vendredi 25 mai 2012_1]]></name>
    <trkseg>
      <trkpt lat="47.23242" lon="4.89458">
        <ele>492.213</ele>
        <time>2012-05-25T08:36:19Z</time>
      </trkpt>
      <trkpt lat="47.23242" lon="4.89458">
        <ele>492.267</ele>
        <time>2012-05-25T08:36:30Z</time>
      </trkpt>
      <trkpt lat="47.23242" lon="4.89458">
        <ele>492.267</ele>
        <time>2012-05-25T08:36:41Z</time>
      </trkpt>
      <trkpt lat="47.23242" lon="4.89458">
        <ele>492.195</ele>
        <time>2012-05-25T08:36:52Z</time>
      </trkpt>
      <trkpt lat="47.2324" lon="4.8946">
        <ele>491.298</ele>
        <time>2012-05-25T08:37:03Z</time>
      </trkpt>
      <trkpt lat="47.23242" lon="4.89457">
        <ele>490.673</ele>
        <time>2012-05-25T08:37:14Z</time>
      </trkpt>
      <trkpt lat="47.2324" lon="4.89457">
        <ele>490.434</ele>
        <time>2012-05-25T08:37:25Z</time>
      </trkpt>
      <trkpt lat="47.2324" lon="4.89457">
        <ele>489.949</ele>
        <time>2012-05-25T08:37:36Z</time>
      </trkpt>
      <trkpt lat="47.23238" lon="4.89457">
        <ele>489.389</ele>
        <time>2012-05-25T08:37:47Z</time>
      </trkpt>
      <trkpt lat="47.23238" lon="4.89458">
        <ele>490.062</ele>
        <time>2012-05-25T08:37:58Z</time>
      </trkpt>
      <trkpt lat="47.23247" lon="4.89462">
        <ele>488.916</ele>
        <time>2012-05-25T08:38:09Z</time>
      </trkpt>
      <trkpt lat="47.23253" lon="4.8946">
        <ele>488.548</ele>
        <time>2012-05-25T08:38:20Z</time>
      </trkpt>
      <trkpt lat="47.23267" lon="4.89455">
        <ele>486.32</ele>
        <time>2012-05-25T08:38:31Z</time>
      </trkpt>
      <trkpt lat="47.23285" lon="4.89455">
        <ele>484.72</ele>
        <time>2012-05-25T08:38:42Z</time>
      </trkpt>
      <trkpt lat="47.233" lon="4.89455">
        <ele>483.462</ele>
        <time>2012-05-25T08:38:53Z</time>
      </trkpt>
      <trkpt lat="47.23315" lon="4.89453">
        <ele>481.199</ele>
        <time>2012-05-25T08:39:04Z</time>
      </trkpt>
      <trkpt lat="47.2333" lon="4.8945">
        <ele>480.316</ele>
        <time>2012-05-25T08:39:15Z</time>
      </trkpt>
      <trkpt lat="47.23345" lon="4.89448">
        <ele>479.755</ele>
        <time>2012-05-25T08:39:26Z</time>
      </trkpt>
      <trkpt lat="47.23362" lon="4.89445">
        <ele>478.889</ele>
        <time>2012-05-25T08:39:37Z</time>
      </trkpt>
      <trkpt lat="47.23378" lon="4.89443">
        <ele>477.954</ele>
        <time>2012-05-25T08:39:48Z</time>
      </trkpt>
      <trkpt lat="47.23395" lon="4.89438">
        <ele>475.799</ele>
        <time>2012-05-25T08:39:59Z</time>
      </trkpt>
      <trkpt lat="47.23412" lon="4.89435">
        <ele>473.554</ele>
        <time>2012-05-25T08:40:10Z</time>
      </trkpt>
      <trkpt lat="47.23428" lon="4.89432">
        <ele>472.22</ele>
        <time>2012-05-25T08:40:21Z</time>
      </trkpt>
      <trkpt lat="47.23443" lon="4.89428">
        <ele>468.836</ele>
        <time>2012-05-25T08:40:32Z</time>
      </trkpt>
      <trkpt lat="47.23458" lon="4.89428">
        <ele>468.437</ele>
        <time>2012-05-25T08:40:43Z</time>
      </trkpt>
      <trkpt lat="47.23473" lon="4.8944">
        <ele>467.88</ele>
        <time>2012-05-25T08:40:54Z</time>
      </trkpt>
      <trkpt lat="47.23483" lon="4.89458">
        <ele>467.107</ele>
        <time>2012-05-25T08:41:05Z</time>
      </trkpt>
      <trkpt lat="47.2349" lon="4.8948">
        <ele>465.127</ele>
        <time>2012-05-25T08:41:16Z</time>
      </trkpt>
      <trkpt lat="47.23498" lon="4.89502">
        <ele>465.253</ele>
        <time>2012-05-25T08:41:27Z</time>
      </trkpt>
      <trkpt lat="47.23505" lon="4.89523">
        <ele>465.968</ele>
        <time>2012-05-25T08:41:38Z</time>
      </trkpt>
      <trkpt lat="47.23512" lon="4.89547">
        <ele>467.657</ele>
        <time>2012-05-25T08:41:49Z</time>
      </trkpt>
      <trkpt lat="47.23515" lon="4.8957">
        <ele>468.408</ele>
        <time>2012-05-25T08:42:00Z</time>
      </trkpt>
      <trkpt lat="47.23518" lon="4.89593">
        <ele>469.048</ele>
        <time>2012-05-25T08:42:11Z</time>
      </trkpt>
      <trkpt lat="47.23518" lon="4.89618">
        <ele>469.813</ele>
        <time>2012-05-25T08:42:22Z</time>
      </trkpt>
      <trkpt lat="47.2352" lon="4.89642">
        <ele>470.706</ele>
        <time>2012-05-25T08:42:33Z</time>
      </trkpt>
      <trkpt lat="47.2352" lon="4.89667">
        <ele>470.708</ele>
        <time>2012-05-25T08:42:44Z</time>
      </trkpt>
      <trkpt lat="47.23522" lon="4.89692">
        <ele>470.72</ele>
        <time>2012-05-25T08:42:55Z</time>
      </trkpt>
      <trkpt lat="47.23527" lon="4.89717">
        <ele>471.089</ele>
        <time>2012-05-25T08:43:06Z</time>
      </trkpt>
      <trkpt lat="47.23532" lon="4.8974">
        <ele>471.27</ele>
        <time>2012-05-25T08:43:17Z</time>
      </trkpt>
      <trkpt lat="47.2354" lon="4.8976">
        <ele>471.183</ele>
        <time>2012-05-25T08:43:28Z</time>
      </trkpt>
      <trkpt lat="47.23548" lon="4.8978">
        <ele>472.096</ele>
        <time>2012-05-25T08:43:39Z</time>
      </trkpt>
      <trkpt lat="47.23553" lon="4.89802">
        <ele>472.194</ele>
        <time>2012-05-25T08:43:50Z</time>
      </trkpt>
      <trkpt lat="47.23557" lon="4.89825">
        <ele>472.687</ele>
        <time>2012-05-25T08:44:01Z</time>
      </trkpt>
      <trkpt lat="47.23562" lon="4.89847">
        <ele>474.218</ele>
        <time>2012-05-25T08:44:12Z</time>
      </trkpt>
      <trkpt lat="47.23565" lon="4.8987">
        <ele>476.343</ele>
        <time>2012-05-25T08:44:23Z</time>
      </trkpt>
      <trkpt lat="47.23565" lon="4.89892">
        <ele>476.988</ele>
        <time>2012-05-25T08:44:34Z</time>
      </trkpt>
      <trkpt lat="47.23565" lon="4.89915">
        <ele>477.018</ele>
        <time>2012-05-25T08:44:45Z</time>
      </trkpt>
      <trkpt lat="47.23563" lon="4.89942">
        <ele>476.526</ele>
        <time>2012-05-25T08:44:56Z</time>
      </trkpt>
      <trkpt lat="47.23565" lon="4.89967">
        <ele>476.682</ele>
        <time>2012-05-25T08:45:07Z</time>
      </trkpt>
      <trkpt lat="47.23567" lon="4.8999">
        <ele>477.148</ele>
        <time>2012-05-25T08:45:18Z</time>
      </trkpt>
      <trkpt lat="47.23568" lon="4.90013">
        <ele>475.673</ele>
        <time>2012-05-25T08:45:29Z</time>
      </trkpt>
      <trkpt lat="47.23568" lon="4.90038">
        <ele>473.673</ele>
        <time>2012-05-25T08:45:40Z</time>
      </trkpt>
      <trkpt lat="47.23568" lon="4.9006">
        <ele>472.932</ele>
        <time>2012-05-25T08:45:51Z</time>
      </trkpt>
      <trkpt lat="47.2357" lon="4.90083">
        <ele>472.922</ele>
        <time>2012-05-25T08:46:02Z</time>
      </trkpt>
      <trkpt lat="47.23573" lon="4.90105">
        <ele>471.596</ele>
        <time>2012-05-25T08:46:13Z</time>
      </trkpt>
      <trkpt lat="47.2358" lon="4.90125">
        <ele>470.69</ele>
        <time>2012-05-25T08:46:24Z</time>
      </trkpt>
      <trkpt lat="47.23587" lon="4.90147">
        <ele>470.68</ele>
        <time>2012-05-25T08:46:35Z</time>
      </trkpt>
      <trkpt lat="47.23602" lon="4.90157">
        <ele>471.608</ele>
        <time>2012-05-25T08:46:46Z</time>
      </trkpt>
      <trkpt lat="47.23617" lon="4.90147">
        <ele>470.085</ele>
        <time>2012-05-25T08:46:57Z</time>
      </trkpt>
      <trkpt lat="47.23628" lon="4.90133">
        <ele>468.576</ele>
        <time>2012-05-25T08:47:08Z</time>
      </trkpt>
      <trkpt lat="47.2364" lon="4.90125">
        <ele>467.666</ele>
        <time>2012-05-25T08:47:19Z</time>
      </trkpt>
      <trkpt lat="47.23657" lon="4.90115">
        <ele>468.641</ele>
        <time>2012-05-25T08:47:30Z</time>
      </trkpt>
      <trkpt lat="47.2367" lon="4.90107">
        <ele>470.479</ele>
        <time>2012-05-25T08:47:41Z</time>
      </trkpt>
      <trkpt lat="47.23685" lon="4.90093">
        <ele>471.682</ele>
        <time>2012-05-25T08:47:52Z</time>
      </trkpt>
      <trkpt lat="47.23698" lon="4.90078">
        <ele>472.158</ele>
        <time>2012-05-25T08:48:03Z</time>
      </trkpt>
      <trkpt lat="47.23707" lon="4.90062">
        <ele>471.036</ele>
        <time>2012-05-25T08:48:14Z</time>
      </trkpt>
      <trkpt lat="47.23715" lon="4.9004">
        <ele>471.45</ele>
        <time>2012-05-25T08:48:25Z</time>
      </trkpt>
      <trkpt lat="47.23725" lon="4.9002">
        <ele>473.123</ele>
        <time>2012-05-25T08:48:36Z</time>
      </trkpt>
      <trkpt lat="47.23735" lon="4.90005">
        <ele>475.832</ele>
        <time>2012-05-25T08:48:47Z</time>
      </trkpt>
      <trkpt lat="47.23745" lon="4.89993">
        <ele>477.781</ele>
        <time>2012-05-25T08:48:58Z</time>
      </trkpt>
      <trkpt lat="47.2376" lon="4.89985">
        <ele>479.82</ele>
        <time>2012-05-25T08:49:09Z</time>
      </trkpt>
      <trkpt lat="47.23773" lon="4.89978">
        <ele>482.379</ele>
        <time>2012-05-25T08:49:20Z</time>
      </trkpt>
      <trkpt lat="47.2379" lon="4.89972">
        <ele>483.814</ele>
        <time>2012-05-25T08:49:31Z</time>
      </trkpt>
      <trkpt lat="47.23805" lon="4.89968">
        <ele>486.589</ele>
        <time>2012-05-25T08:49:42Z</time>
      </trkpt>
      <trkpt lat="47.23822" lon="4.89963">
        <ele>489.126</ele>
        <time>2012-05-25T08:49:53Z</time>
      </trkpt>
      <trkpt lat="47.23838" lon="4.89958">
        <ele>490.688</ele>
        <time>2012-05-25T08:50:04Z</time>
      </trkpt>
      <trkpt lat="47.23853" lon="4.89962">
        <ele>489.447</ele>
        <time>2012-05-25T08:50:15Z</time>
      </trkpt>
      <trkpt lat="47.2387" lon="4.89968">
        <ele>488.761</ele>
        <time>2012-05-25T08:50:26Z</time>
      </trkpt>
      <trkpt lat="47.23887" lon="4.8997">
        <ele>489.069</ele>
        <time>2012-05-25T08:50:37Z</time>
      </trkpt>
      <trkpt lat="47.23903" lon="4.89968">
        <ele>489.353</ele>
        <time>2012-05-25T08:50:48Z</time>
      </trkpt>
      <trkpt lat="47.23922" lon="4.8997">
        <ele>488.883</ele>
        <time>2012-05-25T08:50:59Z</time>
      </trkpt>
      <trkpt lat="47.23937" lon="4.89972">
        <ele>489.574</ele>
        <time>2012-05-25T08:51:10Z</time>
      </trkpt>
      <trkpt lat="47.23952" lon="4.89975">
        <ele>489.811</ele>
        <time>2012-05-25T08:51:21Z</time>
      </trkpt>
      <trkpt lat="47.23968" lon="4.8998">
        <ele>490.44</ele>
        <time>2012-05-25T08:51:32Z</time>
      </trkpt>
      <trkpt lat="47.23983" lon="4.89985">
        <ele>492.18</ele>
        <time>2012-05-25T08:51:43Z</time>
      </trkpt>
      <trkpt lat="47.23997" lon="4.89992">
        <ele>492.287</ele>
        <time>2012-05-25T08:51:54Z</time>
      </trkpt>
      <trkpt lat="47.24012" lon="4.9">
        <ele>492.503</ele>
        <time>2012-05-25T08:52:05Z</time>
      </trkpt>
      <trkpt lat="47.24027" lon="4.9001">
        <ele>493.002</ele>
        <time>2012-05-25T08:52:16Z</time>
      </trkpt>
      <trkpt lat="47.24042" lon="4.90022">
        <ele>492.569</ele>
        <time>2012-05-25T08:52:27Z</time>
      </trkpt>
      <trkpt lat="47.24057" lon="4.90035">
        <ele>492.759</ele>
        <time>2012-05-25T08:52:38Z</time>
      </trkpt>
      <trkpt lat="47.24072" lon="4.90048">
        <ele>493.592</ele>
        <time>2012-05-25T08:52:49Z</time>
      </trkpt>
      <trkpt lat="47.24085" lon="4.90063">
        <ele>490.962</ele>
        <time>2012-05-25T08:53:00Z</time>
      </trkpt>
      <trkpt lat="47.24097" lon="4.90078">
        <ele>490.244</ele>
        <time>2012-05-25T08:53:11Z</time>
      </trkpt>
      <trkpt lat="47.2411" lon="4.9009">
        <ele>489.725</ele>
        <time>2012-05-25T08:53:22Z</time>
      </trkpt>
      <trkpt lat="47.24123" lon="4.901">
        <ele>488.849</ele>
        <time>2012-05-25T08:53:33Z</time>
      </trkpt>
      <trkpt lat="47.24138" lon="4.9011">
        <ele>489.477</ele>
        <time>2012-05-25T08:53:44Z</time>
      </trkpt>
      <trkpt lat="47.2415" lon="4.90122">
        <ele>490.145</ele>
        <time>2012-05-25T08:53:55Z</time>
      </trkpt>
      <trkpt lat="47.24162" lon="4.90137">
        <ele>492.065</ele>
        <time>2012-05-25T08:54:06Z</time>
      </trkpt>
      <trkpt lat="47.24173" lon="4.90157">
        <ele>492.017</ele>
        <time>2012-05-25T08:54:17Z</time>
      </trkpt>
      <trkpt lat="47.24183" lon="4.90177">
        <ele>492.089</ele>
        <time>2012-05-25T08:54:28Z</time>
      </trkpt>
      <trkpt lat="47.24193" lon="4.90195">
        <ele>491.84</ele>
        <time>2012-05-25T08:54:39Z</time>
      </trkpt>
      <trkpt lat="47.24203" lon="4.90213">
        <ele>491.203</ele>
        <time>2012-05-25T08:54:50Z</time>
      </trkpt>
      <trkpt lat="47.24215" lon="4.90233">
        <ele>491.423</ele>
        <time>2012-05-25T08:55:01Z</time>
      </trkpt>
      <trkpt lat="47.24225" lon="4.90252">
        <ele>489.88</ele>
        <time>2012-05-25T08:55:12Z</time>
      </trkpt>
      <trkpt lat="47.24235" lon="4.90272">
        <ele>488.697</ele>
        <time>2012-05-25T08:55:23Z</time>
      </trkpt>
      <trkpt lat="47.24247" lon="4.90292">
        <ele>487.02</ele>
        <time>2012-05-25T08:55:34Z</time>
      </trkpt>
      <trkpt lat="47.24258" lon="4.9031">
        <ele>485.912</ele>
        <time>2012-05-25T08:55:45Z</time>
      </trkpt>
      <trkpt lat="47.24267" lon="4.9033">
        <ele>483.678</ele>
        <time>2012-05-25T08:55:56Z</time>
      </trkpt>
      <trkpt lat="47.24277" lon="4.9035">
        <ele>480.67</ele>
        <time>2012-05-25T08:56:07Z</time>
      </trkpt>
      <trkpt lat="47.24287" lon="4.9037">
        <ele>478.759</ele>
        <time>2012-05-25T08:56:18Z</time>
      </trkpt>
      <trkpt lat="47.243" lon="4.90388">
        <ele>476.43</ele>
        <time>2012-05-25T08:56:29Z</time>
      </trkpt>
      <trkpt lat="47.24312" lon="4.90402">
        <ele>477.612</ele>
        <time>2012-05-25T08:56:40Z</time>
      </trkpt>
      <trkpt lat="47.24325" lon="4.90415">
        <ele>477.829</ele>
        <time>2012-05-25T08:56:51Z</time>
      </trkpt>
      <trkpt lat="47.24342" lon="4.90427">
        <ele>478.07</ele>
        <time>2012-05-25T08:57:02Z</time>
      </trkpt>
      <trkpt lat="47.24353" lon="4.90438">
        <ele>476.922</ele>
        <time>2012-05-25T08:57:13Z</time>
      </trkpt>
      <trkpt lat="47.24365" lon="4.90453">
        <ele>475.4</ele>
        <time>2012-05-25T08:57:24Z</time>
      </trkpt>
      <trkpt lat="47.24378" lon="4.90467">
        <ele>476.264</ele>
        <time>2012-05-25T08:57:35Z</time>
      </trkpt>
      <trkpt lat="47.24392" lon="4.90478">
        <ele>477.35</ele>
        <time>2012-05-25T08:57:46Z</time>
      </trkpt>
      <trkpt lat="47.24405" lon="4.90493">
        <ele>477.446</ele>
        <time>2012-05-25T08:57:57Z</time>
      </trkpt>
      <trkpt lat="47.24418" lon="4.90507">
        <ele>478.673</ele>
        <time>2012-05-25T08:58:08Z</time>
      </trkpt>
      <trkpt lat="47.2443" lon="4.9052">
        <ele>477.455</ele>
        <time>2012-05-25T08:58:19Z</time>
      </trkpt>
      <trkpt lat="47.24445" lon="4.90532">
        <ele>478.126</ele>
        <time>2012-05-25T08:58:30Z</time>
      </trkpt>
      <trkpt lat="47.24458" lon="4.90542">
        <ele>479.984</ele>
        <time>2012-05-25T08:58:41Z</time>
      </trkpt>
      <trkpt lat="47.24472" lon="4.90553">
        <ele>481.176</ele>
        <time>2012-05-25T08:58:52Z</time>
      </trkpt>
      <trkpt lat="47.24485" lon="4.90568">
        <ele>480.541</ele>
        <time>2012-05-25T08:59:03Z</time>
      </trkpt>
      <trkpt lat="47.24495" lon="4.90582">
        <ele>482.042</ele>
        <time>2012-05-25T08:59:14Z</time>
      </trkpt>
      <trkpt lat="47.24507" lon="4.906">
        <ele>481.362</ele>
        <time>2012-05-25T08:59:25Z</time>
      </trkpt>
      <trkpt lat="47.24518" lon="4.90618">
        <ele>480.545</ele>
        <time>2012-05-25T08:59:36Z</time>
      </trkpt>
      <trkpt lat="47.24527" lon="4.9064">
        <ele>480.618</ele>
        <time>2012-05-25T08:59:47Z</time>
      </trkpt>
      <trkpt lat="47.24532" lon="4.90662">
        <ele>480.062</ele>
        <time>2012-05-25T08:59:58Z</time>
      </trkpt>
      <trkpt lat="47.2454" lon="4.9068">
        <ele>481.016</ele>
        <time>2012-05-25T09:00:09Z</time>
      </trkpt>
      <trkpt lat="47.24553" lon="4.90692">
        <ele>483.786</ele>
        <time>2012-05-25T09:00:20Z</time>
      </trkpt>
      <trkpt lat="47.24565" lon="4.90702">
        <ele>487.369</ele>
        <time>2012-05-25T09:00:31Z</time>
      </trkpt>
      <trkpt lat="47.24578" lon="4.90713">
        <ele>488.749</ele>
        <time>2012-05-25T09:00:42Z</time>
      </trkpt>
      <trkpt lat="47.24592" lon="4.90723">
        <ele>490.802</ele>
        <time>2012-05-25T09:00:53Z</time>
      </trkpt>
      <trkpt lat="47.24605" lon="4.90732">
        <ele>492.895</ele>
        <time>2012-05-25T09:01:04Z</time>
      </trkpt>
      <trkpt lat="47.24618" lon="4.90742">
        <ele>494.025</ele>
        <time>2012-05-25T09:01:15Z</time>
      </trkpt>
      <trkpt lat="47.2463" lon="4.90752">
        <ele>496.979</ele>
        <time>2012-05-25T09:01:26Z</time>
      </trkpt>
      <trkpt lat="47.2464" lon="4.90763">
        <ele>499.026</ele>
        <time>2012-05-25T09:01:37Z</time>
      </trkpt>
      <trkpt lat="47.24652" lon="4.90778">
        <ele>499.391</ele>
        <time>2012-05-25T09:01:48Z</time>
      </trkpt>
      <trkpt lat="47.24663" lon="4.90795">
        <ele>501.076</ele>
        <time>2012-05-25T09:01:59Z</time>
      </trkpt>
      <trkpt lat="47.24673" lon="4.90813">
        <ele>501.624</ele>
        <time>2012-05-25T09:02:10Z</time>
      </trkpt>
      <trkpt lat="47.24682" lon="4.9083">
        <ele>504.382</ele>
        <time>2012-05-25T09:02:21Z</time>
      </trkpt>
      <trkpt lat="47.2469" lon="4.90848">
        <ele>506.092</ele>
        <time>2012-05-25T09:02:32Z</time>
      </trkpt>
      <trkpt lat="47.247" lon="4.90867">
        <ele>505.253</ele>
        <time>2012-05-25T09:02:43Z</time>
      </trkpt>
      <trkpt lat="47.24712" lon="4.90882">
        <ele>505.398</ele>
        <time>2012-05-25T09:02:54Z</time>
      </trkpt>
      <trkpt lat="47.24723" lon="4.90898">
        <ele>504.291</ele>
        <time>2012-05-25T09:03:05Z</time>
      </trkpt>
      <trkpt lat="47.24735" lon="4.90913">
        <ele>504.699</ele>
        <time>2012-05-25T09:03:16Z</time>
      </trkpt>
      <trkpt lat="47.24748" lon="4.90928">
        <ele>505.831</ele>
        <time>2012-05-25T09:03:27Z</time>
      </trkpt>
      <trkpt lat="47.24762" lon="4.90943">
        <ele>507.174</ele>
        <time>2012-05-25T09:03:38Z</time>
      </trkpt>
      <trkpt lat="47.24773" lon="4.90957">
        <ele>507.006</ele>
        <time>2012-05-25T09:03:49Z</time>
      </trkpt>
      <trkpt lat="47.24785" lon="4.90973">
        <ele>508.213</ele>
        <time>2012-05-25T09:04:00Z</time>
      </trkpt>
      <trkpt lat="47.24795" lon="4.9099">
        <ele>508.867</ele>
        <time>2012-05-25T09:04:11Z</time>
      </trkpt>
      <trkpt lat="47.24807" lon="4.9101">
        <ele>509.973</ele>
        <time>2012-05-25T09:04:22Z</time>
      </trkpt>
      <trkpt lat="47.24812" lon="4.91028">
        <ele>511.79</ele>
        <time>2012-05-25T09:04:33Z</time>
      </trkpt>
      <trkpt lat="47.24813" lon="4.91038">
        <ele>511.796</ele>
        <time>2012-05-25T09:04:44Z</time>
      </trkpt>
      <trkpt lat="47.24813" lon="4.9104">
        <ele>511.639</ele>
        <time>2012-05-25T09:04:55Z</time>
      </trkpt>
      <trkpt lat="47.24813" lon="4.9105">
        <ele>510.779</ele>
        <time>2012-05-25T09:05:06Z</time>
      </trkpt>
      <trkpt lat="47.24813" lon="4.91052">
        <ele>510.929</ele>
        <time>2012-05-25T09:05:17Z</time>
      </trkpt>
      <trkpt lat="47.24817" lon="4.91068">
        <ele>510.019</ele>
        <time>2012-05-25T09:05:28Z</time>
      </trkpt>
      <trkpt lat="47.24815" lon="4.91085">
        <ele>510.602</ele>
        <time>2012-05-25T09:05:39Z</time>
      </trkpt>
      <trkpt lat="47.2481" lon="4.91103">
        <ele>511.478</ele>
        <time>2012-05-25T09:05:50Z</time>
      </trkpt>
      <trkpt lat="47.24805" lon="4.91118">
        <ele>511.139</ele>
        <time>2012-05-25T09:06:01Z</time>
      </trkpt>
      <trkpt lat="47.24803" lon="4.91125">
        <ele>511.441</ele>
        <time>2012-05-25T09:06:12Z</time>
      </trkpt>
      <trkpt lat="47.24798" lon="4.91135">
        <ele>513.417</ele>
        <time>2012-05-25T09:06:23Z</time>
      </trkpt>
      <trkpt lat="47.24797" lon="4.91147">
        <ele>514.079</ele>
        <time>2012-05-25T09:06:34Z</time>
      </trkpt>
      <trkpt lat="47.24795" lon="4.91167">
        <ele>517.69</ele>
        <time>2012-05-25T09:06:45Z</time>
      </trkpt>
      <trkpt lat="47.24798" lon="4.91192">
        <ele>518.895</ele>
        <time>2012-05-25T09:06:56Z</time>
      </trkpt>
      <trkpt lat="47.24803" lon="4.91207">
        <ele>520.195</ele>
        <time>2012-05-25T09:07:07Z</time>
      </trkpt>
      <trkpt lat="47.24803" lon="4.9123">
        <ele>520.652</ele>
        <time>2012-05-25T09:07:18Z</time>
      </trkpt>
      <trkpt lat="47.24802" lon="4.9125">
        <ele>521.795</ele>
        <time>2012-05-25T09:07:29Z</time>
      </trkpt>
      <trkpt lat="47.24803" lon="4.91272">
        <ele>523.987</ele>
        <time>2012-05-25T09:07:40Z</time>
      </trkpt>
      <trkpt lat="47.24807" lon="4.91298">
        <ele>525.488</ele>
        <time>2012-05-25T09:07:51Z</time>
      </trkpt>
      <trkpt lat="47.24807" lon="4.9131">
        <ele>529.315</ele>
        <time>2012-05-25T09:08:02Z</time>
      </trkpt>
      <trkpt lat="47.24805" lon="4.91317">
        <ele>530.737</ele>
        <time>2012-05-25T09:08:13Z</time>
      </trkpt>
      <trkpt lat="47.24803" lon="4.91318">
        <ele>531.837</ele>
        <time>2012-05-25T09:08:24Z</time>
      </trkpt>
      <trkpt lat="47.24798" lon="4.91317">
        <ele>534.498</ele>
        <time>2012-05-25T09:08:35Z</time>
      </trkpt>
      <trkpt lat="47.24787" lon="4.91323">
        <ele>534.096</ele>
        <time>2012-05-25T09:08:46Z</time>
      </trkpt>
      <trkpt lat="47.2478" lon="4.91332">
        <ele>533.483</ele>
        <time>2012-05-25T09:08:57Z</time>
      </trkpt>
      <trkpt lat="47.24773" lon="4.91335">
        <ele>536.388</ele>
        <time>2012-05-25T09:09:08Z</time>
      </trkpt>
      <trkpt lat="47.24762" lon="4.91337">
        <ele>537.256</ele>
        <time>2012-05-25T09:09:19Z</time>
      </trkpt>
      <trkpt lat="47.24747" lon="4.91337">
        <ele>539.314</ele>
        <time>2012-05-25T09:09:30Z</time>
      </trkpt>
      <trkpt lat="47.24737" lon="4.91337">
        <ele>540.063</ele>
        <time>2012-05-25T09:09:41Z</time>
      </trkpt>
      <trkpt lat="47.24725" lon="4.91337">
        <ele>542.488</ele>
        <time>2012-05-25T09:09:52Z</time>
      </trkpt>
      <trkpt lat="47.2472" lon="4.91335">
        <ele>546.011</ele>
        <time>2012-05-25T09:10:03Z</time>
      </trkpt>
      <trkpt lat="47.24713" lon="4.91335">
        <ele>547.492</ele>
        <time>2012-05-25T09:10:14Z</time>
      </trkpt>
      <trkpt lat="47.24707" lon="4.91337">
        <ele>551.298</ele>
        <time>2012-05-25T09:10:25Z</time>
      </trkpt>
      <trkpt lat="47.24695" lon="4.91333">
        <ele>551.912</ele>
        <time>2012-05-25T09:10:36Z</time>
      </trkpt>
      <trkpt lat="47.24683" lon="4.9133">
        <ele>548.964</ele>
        <time>2012-05-25T09:10:47Z</time>
      </trkpt>
      <trkpt lat="47.24678" lon="4.9133">
        <ele>550.833</ele>
        <time>2012-05-25T09:10:58Z</time>
      </trkpt>
      <trkpt lat="47.2467" lon="4.91332">
        <ele>552.561</ele>
        <time>2012-05-25T09:11:09Z</time>
      </trkpt>
      <trkpt lat="47.24657" lon="4.9133">
        <ele>553.326</ele>
        <time>2012-05-25T09:11:20Z</time>
      </trkpt>
      <trkpt lat="47.24648" lon="4.91332">
        <ele>554.349</ele>
        <time>2012-05-25T09:11:31Z</time>
      </trkpt>
      <trkpt lat="47.2464" lon="4.9133">
        <ele>560.897</ele>
        <time>2012-05-25T09:11:42Z</time>
      </trkpt>
      <trkpt lat="47.24632" lon="4.91328">
        <ele>569.896</ele>
        <time>2012-05-25T09:11:53Z</time>
      </trkpt>
      <trkpt lat="47.24628" lon="4.91328">
        <ele>570.31</ele>
        <time>2012-05-25T09:12:04Z</time>
      </trkpt>
      <trkpt lat="47.24623" lon="4.9133">
        <ele>571.136</ele>
        <time>2012-05-25T09:12:15Z</time>
      </trkpt>
      <trkpt lat="47.24618" lon="4.91328">
        <ele>572.485</ele>
        <time>2012-05-25T09:12:26Z</time>
      </trkpt>
      <trkpt lat="47.2461" lon="4.91328">
        <ele>571.547</ele>
        <time>2012-05-25T09:12:37Z</time>
      </trkpt>
      <trkpt lat="47.246" lon="4.91327">
        <ele>574.364</ele>
        <time>2012-05-25T09:12:48Z</time>
      </trkpt>
      <trkpt lat="47.24588" lon="4.9133">
        <ele>576.983</ele>
        <time>2012-05-25T09:12:59Z</time>
      </trkpt>
      <trkpt lat="47.24582" lon="4.9133">
        <ele>575.965</ele>
        <time>2012-05-25T09:13:10Z</time>
      </trkpt>
      <trkpt lat="47.2457" lon="4.91333">
        <ele>571.683</ele>
        <time>2012-05-25T09:13:21Z</time>
      </trkpt>
      <trkpt lat="47.24558" lon="4.91342">
        <ele>570.355</ele>
        <time>2012-05-25T09:13:32Z</time>
      </trkpt>
      <trkpt lat="47.24547" lon="4.91352">
        <ele>569.539</ele>
        <time>2012-05-25T09:13:43Z</time>
      </trkpt>
      <trkpt lat="47.24538" lon="4.91365">
        <ele>569.79</ele>
        <time>2012-05-25T09:13:54Z</time>
      </trkpt>
      <trkpt lat="47.2453" lon="4.91373">
        <ele>570.019</ele>
        <time>2012-05-25T09:14:05Z</time>
      </trkpt>
      <trkpt lat="47.24513" lon="4.91387">
        <ele>568.781</ele>
        <time>2012-05-25T09:14:16Z</time>
      </trkpt>
      <trkpt lat="47.24503" lon="4.91405">
        <ele>570.976</ele>
        <time>2012-05-25T09:14:27Z</time>
      </trkpt>
      <trkpt lat="47.245" lon="4.91432">
        <ele>574.077</ele>
        <time>2012-05-25T09:14:38Z</time>
      </trkpt>
      <trkpt lat="47.24502" lon="4.9145">
        <ele>575.512</ele>
        <time>2012-05-25T09:14:49Z</time>
      </trkpt>
      <trkpt lat="47.24498" lon="4.91475">
        <ele>574.426</ele>
        <time>2012-05-25T09:15:00Z</time>
      </trkpt>
      <trkpt lat="47.245" lon="4.91493">
        <ele>569.545</ele>
        <time>2012-05-25T09:15:11Z</time>
      </trkpt>
      <trkpt lat="47.24495" lon="4.91517">
        <ele>568.769</ele>
        <time>2012-05-25T09:15:22Z</time>
      </trkpt>
      <trkpt lat="47.24495" lon="4.9154">
        <ele>570.211</ele>
        <time>2012-05-25T09:15:33Z</time>
      </trkpt>
      <trkpt lat="47.24492" lon="4.91553">
        <ele>570.468</ele>
        <time>2012-05-25T09:15:44Z</time>
      </trkpt>
      <trkpt lat="47.24488" lon="4.91573">
        <ele>572.595</ele>
        <time>2012-05-25T09:15:55Z</time>
      </trkpt>
      <trkpt lat="47.24487" lon="4.916">
        <ele>573.277</ele>
        <time>2012-05-25T09:16:06Z</time>
      </trkpt>
      <trkpt lat="47.24485" lon="4.91625">
        <ele>576.064</ele>
        <time>2012-05-25T09:16:17Z</time>
      </trkpt>
      <trkpt lat="47.24482" lon="4.91647">
        <ele>574.906</ele>
        <time>2012-05-25T09:16:28Z</time>
      </trkpt>
      <trkpt lat="47.24475" lon="4.91667">
        <ele>575.14</ele>
        <time>2012-05-25T09:16:39Z</time>
      </trkpt>
      <trkpt lat="47.24468" lon="4.91687">
        <ele>574.445</ele>
        <time>2012-05-25T09:16:50Z</time>
      </trkpt>
      <trkpt lat="47.24465" lon="4.9171">
        <ele>575.01</ele>
        <time>2012-05-25T09:17:01Z</time>
      </trkpt>
      <trkpt lat="47.24462" lon="4.91727">
        <ele>577.201</ele>
        <time>2012-05-25T09:17:12Z</time>
      </trkpt>
      <trkpt lat="47.24457" lon="4.91743">
        <ele>577.201</ele>
        <time>2012-05-25T09:17:23Z</time>
      </trkpt>
      <trkpt lat="47.24447" lon="4.91763">
        <ele>577.731</ele>
        <time>2012-05-25T09:17:34Z</time>
      </trkpt>
      <trkpt lat="47.24443" lon="4.91782">
        <ele>576.289</ele>
        <time>2012-05-25T09:17:45Z</time>
      </trkpt>
      <trkpt lat="47.24438" lon="4.91802">
        <ele>576.263</ele>
        <time>2012-05-25T09:17:56Z</time>
      </trkpt>
      <trkpt lat="47.24437" lon="4.9183">
        <ele>576.699</ele>
        <time>2012-05-25T09:18:07Z</time>
      </trkpt>
      <trkpt lat="47.24437" lon="4.91858">
        <ele>574.629</ele>
        <time>2012-05-25T09:18:18Z</time>
      </trkpt>
      <trkpt lat="47.2444" lon="4.91888">
        <ele>573.464</ele>
        <time>2012-05-25T09:18:29Z</time>
      </trkpt>
      <trkpt lat="47.2444" lon="4.91918">
        <ele>571.809</ele>
        <time>2012-05-25T09:18:40Z</time>
      </trkpt>
      <trkpt lat="47.24438" lon="4.91938">
        <ele>572.704</ele>
        <time>2012-05-25T09:18:51Z</time>
      </trkpt>
      <trkpt lat="47.2444" lon="4.91963">
        <ele>570.384</ele>
        <time>2012-05-25T09:19:02Z</time>
      </trkpt>
      <trkpt lat="47.24438" lon="4.91992">
        <ele>567.46</ele>
        <time>2012-05-25T09:19:13Z</time>
      </trkpt>
      <trkpt lat="47.24438" lon="4.92023">
        <ele>565.154</ele>
        <time>2012-05-25T09:19:24Z</time>
      </trkpt>
      <trkpt lat="47.24438" lon="4.92048">
        <ele>564.989</ele>
        <time>2012-05-25T09:19:35Z</time>
      </trkpt>
      <trkpt lat="47.24438" lon="4.92077">
        <ele>564.183</ele>
        <time>2012-05-25T09:19:46Z</time>
      </trkpt>
      <trkpt lat="47.24433" lon="4.92095">
        <ele>564.269</ele>
        <time>2012-05-25T09:19:57Z</time>
      </trkpt>
      <trkpt lat="47.2443" lon="4.92122">
        <ele>562.679</ele>
        <time>2012-05-25T09:20:08Z</time>
      </trkpt>
      <trkpt lat="47.24432" lon="4.92152">
        <ele>558.269</ele>
        <time>2012-05-25T09:20:19Z</time>
      </trkpt>
      <trkpt lat="47.24433" lon="4.92178">
        <ele>555.906</ele>
        <time>2012-05-25T09:20:30Z</time>
      </trkpt>
      <trkpt lat="47.24435" lon="4.92205">
        <ele>554.866</ele>
        <time>2012-05-25T09:20:41Z</time>
      </trkpt>
      <trkpt lat="47.24435" lon="4.92232">
        <ele>555.833</ele>
        <time>2012-05-25T09:20:52Z</time>
      </trkpt>
      <trkpt lat="47.24437" lon="4.92253">
        <ele>558.34</ele>
        <time>2012-05-25T09:21:03Z</time>
      </trkpt>
      <trkpt lat="47.24438" lon="4.92277">
        <ele>558.846</ele>
        <time>2012-05-25T09:21:14Z</time>
      </trkpt>
      <trkpt lat="47.24438" lon="4.923">
        <ele>561.127</ele>
        <time>2012-05-25T09:21:25Z</time>
      </trkpt>
      <trkpt lat="47.24438" lon="4.92327">
        <ele>560.538</ele>
        <time>2012-05-25T09:21:36Z</time>
      </trkpt>
      <trkpt lat="47.24438" lon="4.92352">
        <ele>559.753</ele>
        <time>2012-05-25T09:21:47Z</time>
      </trkpt>
      <trkpt lat="47.24435" lon="4.92375">
        <ele>558.95</ele>
        <time>2012-05-25T09:21:58Z</time>
      </trkpt>
      <trkpt lat="47.24432" lon="4.92395">
        <ele>559.819</ele>
        <time>2012-05-25T09:22:09Z</time>
      </trkpt>
      <trkpt lat="47.2443" lon="4.92415">
        <ele>560.727</ele>
        <time>2012-05-25T09:22:20Z</time>
      </trkpt>
      <trkpt lat="47.24427" lon="4.92437">
        <ele>564.182</ele>
        <time>2012-05-25T09:22:31Z</time>
      </trkpt>
      <trkpt lat="47.24417" lon="4.92448">
        <ele>561.861</ele>
        <time>2012-05-25T09:22:42Z</time>
      </trkpt>
      <trkpt lat="47.24405" lon="4.92452">
        <ele>559.428</ele>
        <time>2012-05-25T09:22:53Z</time>
      </trkpt>
      <trkpt lat="47.2439" lon="4.92453">
        <ele>555.367</ele>
        <time>2012-05-25T09:23:04Z</time>
      </trkpt>
      <trkpt lat="47.24375" lon="4.92457">
        <ele>553.188</ele>
        <time>2012-05-25T09:23:15Z</time>
      </trkpt>
      <trkpt lat="47.2436" lon="4.92455">
        <ele>551.765</ele>
        <time>2012-05-25T09:23:26Z</time>
      </trkpt>
      <trkpt lat="47.24343" lon="4.92453">
        <ele>550.63</ele>
        <time>2012-05-25T09:23:37Z</time>
      </trkpt>
      <trkpt lat="47.24325" lon="4.9245">
        <ele>549.482</ele>
        <time>2012-05-25T09:23:48Z</time>
      </trkpt>
      <trkpt lat="47.2431" lon="4.92448">
        <ele>548.426</ele>
        <time>2012-05-25T09:23:59Z</time>
      </trkpt>
      <trkpt lat="47.24295" lon="4.92445">
        <ele>547.415</ele>
        <time>2012-05-25T09:24:10Z</time>
      </trkpt>
      <trkpt lat="47.24278" lon="4.92442">
        <ele>545.252</ele>
        <time>2012-05-25T09:24:21Z</time>
      </trkpt>
      <trkpt lat="47.24263" lon="4.92438">
        <ele>543.044</ele>
        <time>2012-05-25T09:24:32Z</time>
      </trkpt>
      <trkpt lat="47.24247" lon="4.92438">
        <ele>540.713</ele>
        <time>2012-05-25T09:24:43Z</time>
      </trkpt>
      <trkpt lat="47.24228" lon="4.92437">
        <ele>540.313</ele>
        <time>2012-05-25T09:24:54Z</time>
      </trkpt>
      <trkpt lat="47.24212" lon="4.92435">
        <ele>539.605</ele>
        <time>2012-05-25T09:25:05Z</time>
      </trkpt>
      <trkpt lat="47.24193" lon="4.92435">
        <ele>537.466</ele>
        <time>2012-05-25T09:25:16Z</time>
      </trkpt>
      <trkpt lat="47.24175" lon="4.92435">
        <ele>536.223</ele>
        <time>2012-05-25T09:25:27Z</time>
      </trkpt>
      <trkpt lat="47.24158" lon="4.92433">
        <ele>534.61</ele>
        <time>2012-05-25T09:25:38Z</time>
      </trkpt>
      <trkpt lat="47.2414" lon="4.92432">
        <ele>533.901</ele>
        <time>2012-05-25T09:25:49Z</time>
      </trkpt>
      <trkpt lat="47.24122" lon="4.92428">
        <ele>532.115</ele>
        <time>2012-05-25T09:26:00Z</time>
      </trkpt>
      <trkpt lat="47.24105" lon="4.92427">
        <ele>531.28</ele>
        <time>2012-05-25T09:26:11Z</time>
      </trkpt>
      <trkpt lat="47.24088" lon="4.92423">
        <ele>530.546</ele>
        <time>2012-05-25T09:26:22Z</time>
      </trkpt>
      <trkpt lat="47.24072" lon="4.92422">
        <ele>531.166</ele>
        <time>2012-05-25T09:26:33Z</time>
      </trkpt>
      <trkpt lat="47.24055" lon="4.9242">
        <ele>530.951</ele>
        <time>2012-05-25T09:26:44Z</time>
      </trkpt>
      <trkpt lat="47.24038" lon="4.92415">
        <ele>531.304</ele>
        <time>2012-05-25T09:26:55Z</time>
      </trkpt>
      <trkpt lat="47.24027" lon="4.92407">
        <ele>531.705</ele>
        <time>2012-05-25T09:27:06Z</time>
      </trkpt>
      <trkpt lat="47.24023" lon="4.92403">
        <ele>532.116</ele>
        <time>2012-05-25T09:27:17Z</time>
      </trkpt>
      <trkpt lat="47.24012" lon="4.9242">
        <ele>532.548</ele>
        <time>2012-05-25T09:27:28Z</time>
      </trkpt>
      <trkpt lat="47.24007" lon="4.92442">
        <ele>535.417</ele>
        <time>2012-05-25T09:27:39Z</time>
      </trkpt>
      <trkpt lat="47.23998" lon="4.92452">
        <ele>539.39</ele>
        <time>2012-05-25T09:27:50Z</time>
      </trkpt>
      <trkpt lat="47.23992" lon="4.92467">
        <ele>541.068</ele>
        <time>2012-05-25T09:28:01Z</time>
      </trkpt>
      <trkpt lat="47.23987" lon="4.92478">
        <ele>544.358</ele>
        <time>2012-05-25T09:28:12Z</time>
      </trkpt>
      <trkpt lat="47.23973" lon="4.9249">
        <ele>549.201</ele>
        <time>2012-05-25T09:28:23Z</time>
      </trkpt>
      <trkpt lat="47.23962" lon="4.92497">
        <ele>549.527</ele>
        <time>2012-05-25T09:28:34Z</time>
      </trkpt>
      <trkpt lat="47.2395" lon="4.92507">
        <ele>549.235</ele>
        <time>2012-05-25T09:28:45Z</time>
      </trkpt>
      <trkpt lat="47.23935" lon="4.9252">
        <ele>550.572</ele>
        <time>2012-05-25T09:28:56Z</time>
      </trkpt>
      <trkpt lat="47.23925" lon="4.9253">
        <ele>550.853</ele>
        <time>2012-05-25T09:29:07Z</time>
      </trkpt>
      <trkpt lat="47.2391" lon="4.9254">
        <ele>550.72</ele>
        <time>2012-05-25T09:29:18Z</time>
      </trkpt>
      <trkpt lat="47.23905" lon="4.92547">
        <ele>551.289</ele>
        <time>2012-05-25T09:29:29Z</time>
      </trkpt>
      <trkpt lat="47.23897" lon="4.92548">
        <ele>551.878</ele>
        <time>2012-05-25T09:29:40Z</time>
      </trkpt>
      <trkpt lat="47.2389" lon="4.92552">
        <ele>552.654</ele>
        <time>2012-05-25T09:29:51Z</time>
      </trkpt>
      <trkpt lat="47.2388" lon="4.92553">
        <ele>551.924</ele>
        <time>2012-05-25T09:30:02Z</time>
      </trkpt>
      <trkpt lat="47.23872" lon="4.92552">
        <ele>550.808</ele>
        <time>2012-05-25T09:30:13Z</time>
      </trkpt>
      <trkpt lat="47.2387" lon="4.92555">
        <ele>549.565</ele>
        <time>2012-05-25T09:30:24Z</time>
      </trkpt>
      <trkpt lat="47.23872" lon="4.92555">
        <ele>550.665</ele>
        <time>2012-05-25T09:30:35Z</time>
      </trkpt>
      <trkpt lat="47.23873" lon="4.92557">
        <ele>550.018</ele>
        <time>2012-05-25T09:30:46Z</time>
      </trkpt>
      <trkpt lat="47.23877" lon="4.92567">
        <ele>551.087</ele>
        <time>2012-05-25T09:30:57Z</time>
      </trkpt>
      <trkpt lat="47.23883" lon="4.92577">
        <ele>553.408</ele>
        <time>2012-05-25T09:31:08Z</time>
      </trkpt>
      <trkpt lat="47.2389" lon="4.92585">
        <ele>553.512</ele>
        <time>2012-05-25T09:31:19Z</time>
      </trkpt>
      <trkpt lat="47.23895" lon="4.92602">
        <ele>555.322</ele>
        <time>2012-05-25T09:31:30Z</time>
      </trkpt>
      <trkpt lat="47.23898" lon="4.92615">
        <ele>555.721</ele>
        <time>2012-05-25T09:31:41Z</time>
      </trkpt>
      <trkpt lat="47.239" lon="4.92637">
        <ele>555.659</ele>
        <time>2012-05-25T09:31:52Z</time>
      </trkpt>
      <trkpt lat="47.23897" lon="4.92657">
        <ele>555.099</ele>
        <time>2012-05-25T09:32:03Z</time>
      </trkpt>
      <trkpt lat="47.23897" lon="4.92677">
        <ele>554.291</ele>
        <time>2012-05-25T09:32:14Z</time>
      </trkpt>
      <trkpt lat="47.23897" lon="4.92693">
        <ele>555.469</ele>
        <time>2012-05-25T09:32:25Z</time>
      </trkpt>
      <trkpt lat="47.23898" lon="4.92715">
        <ele>557.759</ele>
        <time>2012-05-25T09:32:36Z</time>
      </trkpt>
      <trkpt lat="47.239" lon="4.92737">
        <ele>556.767</ele>
        <time>2012-05-25T09:32:47Z</time>
      </trkpt>
      <trkpt lat="47.239" lon="4.9275">
        <ele>555.332</ele>
        <time>2012-05-25T09:32:58Z</time>
      </trkpt>
      <trkpt lat="47.23898" lon="4.92772">
        <ele>554.996</ele>
        <time>2012-05-25T09:33:09Z</time>
      </trkpt>
      <trkpt lat="47.239" lon="4.92798">
        <ele>552.845</ele>
        <time>2012-05-25T09:33:20Z</time>
      </trkpt>
      <trkpt lat="47.23897" lon="4.92823">
        <ele>553.53</ele>
        <time>2012-05-25T09:33:31Z</time>
      </trkpt>
      <trkpt lat="47.23902" lon="4.9286">
        <ele>554.035</ele>
        <time>2012-05-25T09:33:42Z</time>
      </trkpt>
      <trkpt lat="47.23903" lon="4.92892">
        <ele>554.517</ele>
        <time>2012-05-25T09:33:53Z</time>
      </trkpt>
      <trkpt lat="47.23903" lon="4.92923">
        <ele>555.449</ele>
        <time>2012-05-25T09:34:04Z</time>
      </trkpt>
      <trkpt lat="47.23905" lon="4.92948">
        <ele>553.054</ele>
        <time>2012-05-25T09:34:15Z</time>
      </trkpt>
      <trkpt lat="47.23903" lon="4.92973">
        <ele>552.656</ele>
        <time>2012-05-25T09:34:26Z</time>
      </trkpt>
      <trkpt lat="47.23903" lon="4.92995">
        <ele>552.666</ele>
        <time>2012-05-25T09:34:37Z</time>
      </trkpt>
      <trkpt lat="47.23903" lon="4.93022">
        <ele>550.969</ele>
        <time>2012-05-25T09:34:48Z</time>
      </trkpt>
      <trkpt lat="47.239" lon="4.93047">
        <ele>551.554</ele>
        <time>2012-05-25T09:34:59Z</time>
      </trkpt>
      <trkpt lat="47.23897" lon="4.93067">
        <ele>552.707</ele>
        <time>2012-05-25T09:35:10Z</time>
      </trkpt>
      <trkpt lat="47.23895" lon="4.93093">
        <ele>551.287</ele>
        <time>2012-05-25T09:35:21Z</time>
      </trkpt>
      <trkpt lat="47.23893" lon="4.93115">
        <ele>552.795</ele>
        <time>2012-05-25T09:35:32Z</time>
      </trkpt>
      <trkpt lat="47.23892" lon="4.93132">
        <ele>552.512</ele>
        <time>2012-05-25T09:35:43Z</time>
      </trkpt>
      <trkpt lat="47.23892" lon="4.93153">
        <ele>550.159</ele>
        <time>2012-05-25T09:35:54Z</time>
      </trkpt>
      <trkpt lat="47.2389" lon="4.93173">
        <ele>548.731</ele>
        <time>2012-05-25T09:36:05Z</time>
      </trkpt>
      <trkpt lat="47.23888" lon="4.93193">
        <ele>548.148</ele>
        <time>2012-05-25T09:36:16Z</time>
      </trkpt>
      <trkpt lat="47.23887" lon="4.93212">
        <ele>549.002</ele>
        <time>2012-05-25T09:36:27Z</time>
      </trkpt>
      <trkpt lat="47.23888" lon="4.93235">
        <ele>547.414</ele>
        <time>2012-05-25T09:36:38Z</time>
      </trkpt>
      <trkpt lat="47.23887" lon="4.9326">
        <ele>547.959</ele>
        <time>2012-05-25T09:36:49Z</time>
      </trkpt>
      <trkpt lat="47.23887" lon="4.93282">
        <ele>546.409</ele>
        <time>2012-05-25T09:37:00Z</time>
      </trkpt>
      <trkpt lat="47.23887" lon="4.93298">
        <ele>544.266</ele>
        <time>2012-05-25T09:37:11Z</time>
      </trkpt>
      <trkpt lat="47.23887" lon="4.93325">
        <ele>542.74</ele>
        <time>2012-05-25T09:37:22Z</time>
      </trkpt>
      <trkpt lat="47.23883" lon="4.93347">
        <ele>542.283</ele>
        <time>2012-05-25T09:37:33Z</time>
      </trkpt>
      <trkpt lat="47.23882" lon="4.9337">
        <ele>542.506</ele>
        <time>2012-05-25T09:37:44Z</time>
      </trkpt>
      <trkpt lat="47.2388" lon="4.93397">
        <ele>543.041</ele>
        <time>2012-05-25T09:37:55Z</time>
      </trkpt>
      <trkpt lat="47.23882" lon="4.93418">
        <ele>542.659</ele>
        <time>2012-05-25T09:38:06Z</time>
      </trkpt>
      <trkpt lat="47.23882" lon="4.93445">
        <ele>542.962</ele>
        <time>2012-05-25T09:38:17Z</time>
      </trkpt>
      <trkpt lat="47.23883" lon="4.93468">
        <ele>543.524</ele>
        <time>2012-05-25T09:38:28Z</time>
      </trkpt>
      <trkpt lat="47.23897" lon="4.93488">
        <ele>542.25</ele>
        <time>2012-05-25T09:38:39Z</time>
      </trkpt>
      <trkpt lat="47.23905" lon="4.93495">
        <ele>541.069</ele>
        <time>2012-05-25T09:38:50Z</time>
      </trkpt>
      <trkpt lat="47.2392" lon="4.93507">
        <ele>541.273</ele>
        <time>2012-05-25T09:39:01Z</time>
      </trkpt>
      <trkpt lat="47.23932" lon="4.93515">
        <ele>539.495</ele>
        <time>2012-05-25T09:39:12Z</time>
      </trkpt>
      <trkpt lat="47.23945" lon="4.93523">
        <ele>540.107</ele>
        <time>2012-05-25T09:39:23Z</time>
      </trkpt>
      <trkpt lat="47.23955" lon="4.93528">
        <ele>538.839</ele>
        <time>2012-05-25T09:39:34Z</time>
      </trkpt>
      <trkpt lat="47.23972" lon="4.93532">
        <ele>540.304</ele>
        <time>2012-05-25T09:39:45Z</time>
      </trkpt>
      <trkpt lat="47.23982" lon="4.9353">
        <ele>540.815</ele>
        <time>2012-05-25T09:39:56Z</time>
      </trkpt>
      <trkpt lat="47.23995" lon="4.93533">
        <ele>540.359</ele>
        <time>2012-05-25T09:40:07Z</time>
      </trkpt>
      <trkpt lat="47.24012" lon="4.93535">
        <ele>541.311</ele>
        <time>2012-05-25T09:40:18Z</time>
      </trkpt>
      <trkpt lat="47.24022" lon="4.9354">
        <ele>542.392</ele>
        <time>2012-05-25T09:40:29Z</time>
      </trkpt>
      <trkpt lat="47.24037" lon="4.93542">
        <ele>541.141</ele>
        <time>2012-05-25T09:40:40Z</time>
      </trkpt>
      <trkpt lat="47.2405" lon="4.93543">
        <ele>540.432</ele>
        <time>2012-05-25T09:40:51Z</time>
      </trkpt>
      <trkpt lat="47.24072" lon="4.93547">
        <ele>540.763</ele>
        <time>2012-05-25T09:41:02Z</time>
      </trkpt>
      <trkpt lat="47.24075" lon="4.93558">
        <ele>546.597</ele>
        <time>2012-05-25T09:41:13Z</time>
      </trkpt>
      <trkpt lat="47.2407" lon="4.9357">
        <ele>549.273</ele>
        <time>2012-05-25T09:41:24Z</time>
      </trkpt>
      <trkpt lat="47.24073" lon="4.93578">
        <ele>549.404</ele>
        <time>2012-05-25T09:41:35Z</time>
      </trkpt>
      <trkpt lat="47.24067" lon="4.93595">
        <ele>549.712</ele>
        <time>2012-05-25T09:41:46Z</time>
      </trkpt>
      <trkpt lat="47.24063" lon="4.9361">
        <ele>549.642</ele>
        <time>2012-05-25T09:41:57Z</time>
      </trkpt>
      <trkpt lat="47.24058" lon="4.93628">
        <ele>547.9</ele>
        <time>2012-05-25T09:42:08Z</time>
      </trkpt>
      <trkpt lat="47.24055" lon="4.93645">
        <ele>546.093</ele>
        <time>2012-05-25T09:42:19Z</time>
      </trkpt>
      <trkpt lat="47.24047" lon="4.93668">
        <ele>546.887</ele>
        <time>2012-05-25T09:42:30Z</time>
      </trkpt>
      <trkpt lat="47.2404" lon="4.93692">
        <ele>547.187</ele>
        <time>2012-05-25T09:42:41Z</time>
      </trkpt>
      <trkpt lat="47.24032" lon="4.93713">
        <ele>546.814</ele>
        <time>2012-05-25T09:42:52Z</time>
      </trkpt>
      <trkpt lat="47.24027" lon="4.93735">
        <ele>548.884</ele>
        <time>2012-05-25T09:43:03Z</time>
      </trkpt>
      <trkpt lat="47.2402" lon="4.93762">
        <ele>550.074</ele>
        <time>2012-05-25T09:43:14Z</time>
      </trkpt>
      <trkpt lat="47.24018" lon="4.93782">
        <ele>546.557</ele>
        <time>2012-05-25T09:43:25Z</time>
      </trkpt>
      <trkpt lat="47.24015" lon="4.93813">
        <ele>539.573</ele>
        <time>2012-05-25T09:43:36Z</time>
      </trkpt>
      <trkpt lat="47.24007" lon="4.93847">
        <ele>533.752</ele>
        <time>2012-05-25T09:43:47Z</time>
      </trkpt>
      <trkpt lat="47.23997" lon="4.93878">
        <ele>529.504</ele>
        <time>2012-05-25T09:43:58Z</time>
      </trkpt>
      <trkpt lat="47.23988" lon="4.93905">
        <ele>527.443</ele>
        <time>2012-05-25T09:44:09Z</time>
      </trkpt>
      <trkpt lat="47.23975" lon="4.9393">
        <ele>526.648</ele>
        <time>2012-05-25T09:44:20Z</time>
      </trkpt>
      <trkpt lat="47.23963" lon="4.9395">
        <ele>521.592</ele>
        <time>2012-05-25T09:44:31Z</time>
      </trkpt>
      <trkpt lat="47.23948" lon="4.93965">
        <ele>517.735</ele>
        <time>2012-05-25T09:44:42Z</time>
      </trkpt>
      <trkpt lat="47.2394" lon="4.93978">
        <ele>517.444</ele>
        <time>2012-05-25T09:44:53Z</time>
      </trkpt>
      <trkpt lat="47.2393" lon="4.9399">
        <ele>516.973</ele>
        <time>2012-05-25T09:45:04Z</time>
      </trkpt>
      <trkpt lat="47.23918" lon="4.94015">
        <ele>517.155</ele>
        <time>2012-05-25T09:45:15Z</time>
      </trkpt>
      <trkpt lat="47.23912" lon="4.94042">
        <ele>516.728</ele>
        <time>2012-05-25T09:45:26Z</time>
      </trkpt>
      <trkpt lat="47.239" lon="4.94073">
        <ele>515.615</ele>
        <time>2012-05-25T09:45:37Z</time>
      </trkpt>
      <trkpt lat="47.23885" lon="4.94088">
        <ele>512.779</ele>
        <time>2012-05-25T09:45:48Z</time>
      </trkpt>
      <trkpt lat="47.23868" lon="4.94102">
        <ele>510.35</ele>
        <time>2012-05-25T09:45:59Z</time>
      </trkpt>
      <trkpt lat="47.23853" lon="4.94125">
        <ele>509.923</ele>
        <time>2012-05-25T09:46:10Z</time>
      </trkpt>
      <trkpt lat="47.2384" lon="4.94145">
        <ele>511.094</ele>
        <time>2012-05-25T09:46:21Z</time>
      </trkpt>
      <trkpt lat="47.23825" lon="4.94162">
        <ele>509.813</ele>
        <time>2012-05-25T09:46:32Z</time>
      </trkpt>
      <trkpt lat="47.23812" lon="4.94162">
        <ele>511.094</ele>
        <time>2012-05-25T09:46:43Z</time>
      </trkpt>
      <trkpt lat="47.238" lon="4.94153">
        <ele>512.355</ele>
        <time>2012-05-25T09:46:54Z</time>
      </trkpt>
      <trkpt lat="47.23787" lon="4.94145">
        <ele>514.159</ele>
        <time>2012-05-25T09:47:05Z</time>
      </trkpt>
      <trkpt lat="47.2377" lon="4.94142">
        <ele>515.094</ele>
        <time>2012-05-25T09:47:16Z</time>
      </trkpt>
      <trkpt lat="47.23752" lon="4.9414">
        <ele>514.445</ele>
        <time>2012-05-25T09:47:27Z</time>
      </trkpt>
      <trkpt lat="47.23732" lon="4.94143">
        <ele>513.209</ele>
        <time>2012-05-25T09:47:38Z</time>
      </trkpt>
      <trkpt lat="47.2371" lon="4.94153">
        <ele>509.922</ele>
        <time>2012-05-25T09:47:49Z</time>
      </trkpt>
      <trkpt lat="47.23698" lon="4.94168">
        <ele>507.762</ele>
        <time>2012-05-25T09:48:00Z</time>
      </trkpt>
      <trkpt lat="47.23697" lon="4.9419">
        <ele>507.686</ele>
        <time>2012-05-25T09:48:11Z</time>
      </trkpt>
      <trkpt lat="47.23692" lon="4.9421">
        <ele>508.93</ele>
        <time>2012-05-25T09:48:22Z</time>
      </trkpt>
      <trkpt lat="47.2369" lon="4.94232">
        <ele>510.691</ele>
        <time>2012-05-25T09:48:33Z</time>
      </trkpt>
      <trkpt lat="47.23685" lon="4.94252">
        <ele>512.293</ele>
        <time>2012-05-25T09:48:44Z</time>
      </trkpt>
      <trkpt lat="47.23682" lon="4.94273">
        <ele>513.897</ele>
        <time>2012-05-25T09:48:55Z</time>
      </trkpt>
      <trkpt lat="47.2368" lon="4.94297">
        <ele>514.536</ele>
        <time>2012-05-25T09:49:06Z</time>
      </trkpt>
      <trkpt lat="47.23675" lon="4.94318">
        <ele>516.739</ele>
        <time>2012-05-25T09:49:17Z</time>
      </trkpt>
      <trkpt lat="47.23675" lon="4.94345">
        <ele>517.261</ele>
        <time>2012-05-25T09:49:28Z</time>
      </trkpt>
      <trkpt lat="47.2367" lon="4.94368">
        <ele>518.941</ele>
        <time>2012-05-25T09:49:39Z</time>
      </trkpt>
      <trkpt lat="47.23667" lon="4.94395">
        <ele>521.606</ele>
        <time>2012-05-25T09:49:50Z</time>
      </trkpt>
      <trkpt lat="47.23665" lon="4.94422">
        <ele>522.29</ele>
        <time>2012-05-25T09:50:01Z</time>
      </trkpt>
      <trkpt lat="47.2366" lon="4.94443">
        <ele>525.165</ele>
        <time>2012-05-25T09:50:12Z</time>
      </trkpt>
      <trkpt lat="47.23658" lon="4.94468">
        <ele>526.065</ele>
        <time>2012-05-25T09:50:23Z</time>
      </trkpt>
      <trkpt lat="47.23658" lon="4.94497">
        <ele>525.652</ele>
        <time>2012-05-25T09:50:34Z</time>
      </trkpt>
      <trkpt lat="47.23657" lon="4.94523">
        <ele>523.664</ele>
        <time>2012-05-25T09:50:45Z</time>
      </trkpt>
      <trkpt lat="47.23653" lon="4.94547">
        <ele>524.94</ele>
        <time>2012-05-25T09:50:56Z</time>
      </trkpt>
      <trkpt lat="47.23653" lon="4.94575">
        <ele>526.071</ele>
        <time>2012-05-25T09:51:07Z</time>
      </trkpt>
      <trkpt lat="47.23653" lon="4.94598">
        <ele>526.255</ele>
        <time>2012-05-25T09:51:18Z</time>
      </trkpt>
      <trkpt lat="47.23658" lon="4.94628">
        <ele>524.909</ele>
        <time>2012-05-25T09:51:29Z</time>
      </trkpt>
      <trkpt lat="47.2366" lon="4.94655">
        <ele>525.668</ele>
        <time>2012-05-25T09:51:40Z</time>
      </trkpt>
      <trkpt lat="47.23662" lon="4.94682">
        <ele>524.024</ele>
        <time>2012-05-25T09:51:51Z</time>
      </trkpt>
      <trkpt lat="47.2366" lon="4.94705">
        <ele>523.499</ele>
        <time>2012-05-25T09:52:02Z</time>
      </trkpt>
      <trkpt lat="47.2366" lon="4.94733">
        <ele>520.365</ele>
        <time>2012-05-25T09:52:13Z</time>
      </trkpt>
      <trkpt lat="47.23657" lon="4.94758">
        <ele>519.757</ele>
        <time>2012-05-25T09:52:24Z</time>
      </trkpt>
      <trkpt lat="47.2366" lon="4.94783">
        <ele>519.845</ele>
        <time>2012-05-25T09:52:35Z</time>
      </trkpt>
      <trkpt lat="47.23663" lon="4.9481">
        <ele>520.267</ele>
        <time>2012-05-25T09:52:46Z</time>
      </trkpt>
      <trkpt lat="47.23667" lon="4.94835">
        <ele>520.031</ele>
        <time>2012-05-25T09:52:57Z</time>
      </trkpt>
      <trkpt lat="47.2367" lon="4.94863">
        <ele>518.529</ele>
        <time>2012-05-25T09:53:08Z</time>
      </trkpt>
      <trkpt lat="47.23675" lon="4.9489">
        <ele>515.624</ele>
        <time>2012-05-25T09:53:19Z</time>
      </trkpt>
      <trkpt lat="47.23678" lon="4.94913">
        <ele>515.89</ele>
        <time>2012-05-25T09:53:30Z</time>
      </trkpt>
      <trkpt lat="47.2368" lon="4.94942">
        <ele>512.866</ele>
        <time>2012-05-25T09:53:41Z</time>
      </trkpt>
      <trkpt lat="47.23677" lon="4.94965">
        <ele>512.365</ele>
        <time>2012-05-25T09:53:52Z</time>
      </trkpt>
      <trkpt lat="47.23673" lon="4.9499">
        <ele>513.081</ele>
        <time>2012-05-25T09:54:03Z</time>
      </trkpt>
      <trkpt lat="47.23668" lon="4.95007">
        <ele>511.207</ele>
        <time>2012-05-25T09:54:14Z</time>
      </trkpt>
      <trkpt lat="47.23658" lon="4.9503">
        <ele>510.007</ele>
        <time>2012-05-25T09:54:25Z</time>
      </trkpt>
      <trkpt lat="47.2365" lon="4.9505">
        <ele>510.348</ele>
        <time>2012-05-25T09:54:36Z</time>
      </trkpt>
      <trkpt lat="47.23643" lon="4.95067">
        <ele>507.549</ele>
        <time>2012-05-25T09:54:47Z</time>
      </trkpt>
      <trkpt lat="47.23637" lon="4.95088">
        <ele>503.659</ele>
        <time>2012-05-25T09:54:58Z</time>
      </trkpt>
      <trkpt lat="47.23622" lon="4.95112">
        <ele>502.95</ele>
        <time>2012-05-25T09:55:09Z</time>
      </trkpt>
      <trkpt lat="47.2361" lon="4.95135">
        <ele>501.165</ele>
        <time>2012-05-25T09:55:20Z</time>
      </trkpt>
      <trkpt lat="47.23598" lon="4.95158">
        <ele>500.842</ele>
        <time>2012-05-25T09:55:31Z</time>
      </trkpt>
      <trkpt lat="47.23592" lon="4.95182">
        <ele>500.234</ele>
        <time>2012-05-25T09:55:42Z</time>
      </trkpt>
      <trkpt lat="47.2359" lon="4.95195">
        <ele>496.512</ele>
        <time>2012-05-25T09:55:53Z</time>
      </trkpt>
      <trkpt lat="47.23583" lon="4.95218">
        <ele>496.024</ele>
        <time>2012-05-25T09:56:04Z</time>
      </trkpt>
      <trkpt lat="47.23577" lon="4.95237">
        <ele>491.959</ele>
        <time>2012-05-25T09:56:15Z</time>
      </trkpt>
      <trkpt lat="47.23567" lon="4.95253">
        <ele>490.127</ele>
        <time>2012-05-25T09:56:26Z</time>
      </trkpt>
      <trkpt lat="47.23557" lon="4.95277">
        <ele>488.934</ele>
        <time>2012-05-25T09:56:37Z</time>
      </trkpt>
      <trkpt lat="47.2354" lon="4.95298">
        <ele>492.805</ele>
        <time>2012-05-25T09:56:48Z</time>
      </trkpt>
      <trkpt lat="47.2353" lon="4.95322">
        <ele>496.406</ele>
        <time>2012-05-25T09:56:59Z</time>
      </trkpt>
      <trkpt lat="47.23528" lon="4.95343">
        <ele>494.266</ele>
        <time>2012-05-25T09:57:10Z</time>
      </trkpt>
      <trkpt lat="47.23522" lon="4.95358">
        <ele>494.324</ele>
        <time>2012-05-25T09:57:21Z</time>
      </trkpt>
      <trkpt lat="47.23515" lon="4.95375">
        <ele>493.784</ele>
        <time>2012-05-25T09:57:32Z</time>
      </trkpt>
      <trkpt lat="47.23508" lon="4.95392">
        <ele>492.308</ele>
        <time>2012-05-25T09:57:43Z</time>
      </trkpt>
      <trkpt lat="47.23492" lon="4.95417">
        <ele>489.846</ele>
        <time>2012-05-25T09:57:54Z</time>
      </trkpt>
      <trkpt lat="47.23487" lon="4.95422">
        <ele>489.145</ele>
        <time>2012-05-25T09:58:05Z</time>
      </trkpt>
      <trkpt lat="47.23485" lon="4.95425">
        <ele>487.96</ele>
        <time>2012-05-25T09:58:16Z</time>
      </trkpt>
      <trkpt lat="47.23485" lon="4.95425">
        <ele>487.928</ele>
        <time>2012-05-25T09:58:27Z</time>
      </trkpt>
      <trkpt lat="47.23485" lon="4.95425">
        <ele>487.803</ele>
        <time>2012-05-25T09:58:38Z</time>
      </trkpt>
      <trkpt lat="47.23485" lon="4.95427">
        <ele>487.71</ele>
        <time>2012-05-25T09:58:49Z</time>
      </trkpt>
      <trkpt lat="47.23483" lon="4.95428">
        <ele>487.662</ele>
        <time>2012-05-25T09:59:00Z</time>
      </trkpt>
      <trkpt lat="47.23475" lon="4.95448">
        <ele>486.886</ele>
        <time>2012-05-25T09:59:11Z</time>
      </trkpt>
      <trkpt lat="47.23465" lon="4.95467">
        <ele>486.01</ele>
        <time>2012-05-25T09:59:22Z</time>
      </trkpt>
      <trkpt lat="47.2345" lon="4.95483">
        <ele>485.225</ele>
        <time>2012-05-25T09:59:33Z</time>
      </trkpt>
      <trkpt lat="47.23442" lon="4.955">
        <ele>483.313</ele>
        <time>2012-05-25T09:59:44Z</time>
      </trkpt>
      <trkpt lat="47.23442" lon="4.9551">
        <ele>479.408</ele>
        <time>2012-05-25T09:59:55Z</time>
      </trkpt>
      <trkpt lat="47.23442" lon="4.95513">
        <ele>476.901</ele>
        <time>2012-05-25T10:00:06Z</time>
      </trkpt>
      <trkpt lat="47.23435" lon="4.95518">
        <ele>475.917</ele>
        <time>2012-05-25T10:00:17Z</time>
      </trkpt>
      <trkpt lat="47.23432" lon="4.95522">
        <ele>475.573</ele>
        <time>2012-05-25T10:00:28Z</time>
      </trkpt>
      <trkpt lat="47.23418" lon="4.95522">
        <ele>476.527</ele>
        <time>2012-05-25T10:00:39Z</time>
      </trkpt>
      <trkpt lat="47.23412" lon="4.9552">
        <ele>475.722</ele>
        <time>2012-05-25T10:00:50Z</time>
      </trkpt>
      <trkpt lat="47.23398" lon="4.9552">
        <ele>478.8</ele>
        <time>2012-05-25T10:01:01Z</time>
      </trkpt>
      <trkpt lat="47.23382" lon="4.9552">
        <ele>480.026</ele>
        <time>2012-05-25T10:01:12Z</time>
      </trkpt>
      <trkpt lat="47.23373" lon="4.95518">
        <ele>480.283</ele>
        <time>2012-05-25T10:01:23Z</time>
      </trkpt>
      <trkpt lat="47.23362" lon="4.95513">
        <ele>478.748</ele>
        <time>2012-05-25T10:01:34Z</time>
      </trkpt>
      <trkpt lat="47.23353" lon="4.9551">
        <ele>477.537</ele>
        <time>2012-05-25T10:01:45Z</time>
      </trkpt>
      <trkpt lat="47.2334" lon="4.95508">
        <ele>477.983</ele>
        <time>2012-05-25T10:01:56Z</time>
      </trkpt>
      <trkpt lat="47.23322" lon="4.95513">
        <ele>476.624</ele>
        <time>2012-05-25T10:02:07Z</time>
      </trkpt>
      <trkpt lat="47.23312" lon="4.95515">
        <ele>478.536</ele>
        <time>2012-05-25T10:02:18Z</time>
      </trkpt>
      <trkpt lat="47.23298" lon="4.95517">
        <ele>478.993</ele>
        <time>2012-05-25T10:02:29Z</time>
      </trkpt>
      <trkpt lat="47.23278" lon="4.95515">
        <ele>480.393</ele>
        <time>2012-05-25T10:02:40Z</time>
      </trkpt>
      <trkpt lat="47.23263" lon="4.9551">
        <ele>481.624</ele>
        <time>2012-05-25T10:02:51Z</time>
      </trkpt>
      <trkpt lat="47.23247" lon="4.95508">
        <ele>483.187</ele>
        <time>2012-05-25T10:03:02Z</time>
      </trkpt>
      <trkpt lat="47.23237" lon="4.95505">
        <ele>481.679</ele>
        <time>2012-05-25T10:03:13Z</time>
      </trkpt>
      <trkpt lat="47.2322" lon="4.95498">
        <ele>476.747</ele>
        <time>2012-05-25T10:03:24Z</time>
      </trkpt>
      <trkpt lat="47.23198" lon="4.95485">
        <ele>475.614</ele>
        <time>2012-05-25T10:03:35Z</time>
      </trkpt>
      <trkpt lat="47.2318" lon="4.95475">
        <ele>473.221</ele>
        <time>2012-05-25T10:03:46Z</time>
      </trkpt>
      <trkpt lat="47.23173" lon="4.95473">
        <ele>472.576</ele>
        <time>2012-05-25T10:03:57Z</time>
      </trkpt>
      <trkpt lat="47.23172" lon="4.95473">
        <ele>472.479</ele>
        <time>2012-05-25T10:04:08Z</time>
      </trkpt>
      <trkpt lat="47.2317" lon="4.95473">
        <ele>472.115</ele>
        <time>2012-05-25T10:04:19Z</time>
      </trkpt>
      <trkpt lat="47.2317" lon="4.95473">
        <ele>472.115</ele>
        <time>2012-05-25T10:04:30Z</time>
      </trkpt>
      <trkpt lat="47.23167" lon="4.95473">
        <ele>471.305</ele>
        <time>2012-05-25T10:04:41Z</time>
      </trkpt>
      <trkpt lat="47.23157" lon="4.9548">
        <ele>469.942</ele>
        <time>2012-05-25T10:04:52Z</time>
      </trkpt>
      <trkpt lat="47.23145" lon="4.95493">
        <ele>471.754</ele>
        <time>2012-05-25T10:05:03Z</time>
      </trkpt>
      <trkpt lat="47.23137" lon="4.955">
        <ele>469.143</ele>
        <time>2012-05-25T10:05:14Z</time>
      </trkpt>
      <trkpt lat="47.2313" lon="4.95513">
        <ele>468.56</ele>
        <time>2012-05-25T10:05:25Z</time>
      </trkpt>
      <trkpt lat="47.23125" lon="4.95528">
        <ele>467.757</ele>
        <time>2012-05-25T10:05:36Z</time>
      </trkpt>
      <trkpt lat="47.23125" lon="4.95545">
        <ele>465.936</ele>
        <time>2012-05-25T10:05:47Z</time>
      </trkpt>
      <trkpt lat="47.23118" lon="4.95562">
        <ele>466.599</ele>
        <time>2012-05-25T10:05:58Z</time>
      </trkpt>
      <trkpt lat="47.23118" lon="4.95573">
        <ele>466.621</ele>
        <time>2012-05-25T10:06:09Z</time>
      </trkpt>
      <trkpt lat="47.23117" lon="4.95588">
        <ele>463.386</ele>
        <time>2012-05-25T10:06:20Z</time>
      </trkpt>
      <trkpt lat="47.23113" lon="4.95603">
        <ele>460.596</ele>
        <time>2012-05-25T10:06:31Z</time>
      </trkpt>
      <trkpt lat="47.23102" lon="4.95615">
        <ele>456.674</ele>
        <time>2012-05-25T10:06:42Z</time>
      </trkpt>
      <trkpt lat="47.23095" lon="4.95627">
        <ele>454.669</ele>
        <time>2012-05-25T10:06:53Z</time>
      </trkpt>
      <trkpt lat="47.23087" lon="4.95633">
        <ele>453.874</ele>
        <time>2012-05-25T10:07:04Z</time>
      </trkpt>
      <trkpt lat="47.23077" lon="4.95635">
        <ele>451.542</ele>
        <time>2012-05-25T10:07:15Z</time>
      </trkpt>
      <trkpt lat="47.2307" lon="4.95637">
        <ele>449.619</ele>
        <time>2012-05-25T10:07:26Z</time>
      </trkpt>
      <trkpt lat="47.23057" lon="4.95642">
        <ele>447.82</ele>
        <time>2012-05-25T10:07:37Z</time>
      </trkpt>
      <trkpt lat="47.23047" lon="4.95648">
        <ele>444.662</ele>
        <time>2012-05-25T10:07:48Z</time>
      </trkpt>
      <trkpt lat="47.23037" lon="4.95652">
        <ele>442.935</ele>
        <time>2012-05-25T10:07:59Z</time>
      </trkpt>
      <trkpt lat="47.2302" lon="4.95657">
        <ele>440.601</ele>
        <time>2012-05-25T10:08:10Z</time>
      </trkpt>
      <trkpt lat="47.23012" lon="4.9566">
        <ele>436.899</ele>
        <time>2012-05-25T10:08:21Z</time>
      </trkpt>
      <trkpt lat="47.22998" lon="4.95663">
        <ele>436.458</ele>
        <time>2012-05-25T10:08:32Z</time>
      </trkpt>
      <trkpt lat="47.22985" lon="4.95668">
        <ele>435.209</ele>
        <time>2012-05-25T10:08:43Z</time>
      </trkpt>
      <trkpt lat="47.22978" lon="4.95668">
        <ele>432.729</ele>
        <time>2012-05-25T10:08:54Z</time>
      </trkpt>
      <trkpt lat="47.2297" lon="4.9567">
        <ele>430.558</ele>
        <time>2012-05-25T10:09:05Z</time>
      </trkpt>
      <trkpt lat="47.22965" lon="4.95672">
        <ele>429.027</ele>
        <time>2012-05-25T10:09:16Z</time>
      </trkpt>
      <trkpt lat="47.22958" lon="4.95673">
        <ele>428.318</ele>
        <time>2012-05-25T10:09:27Z</time>
      </trkpt>
      <trkpt lat="47.22952" lon="4.95675">
        <ele>426.376</ele>
        <time>2012-05-25T10:09:38Z</time>
      </trkpt>
      <trkpt lat="47.22945" lon="4.95678">
        <ele>425.686</ele>
        <time>2012-05-25T10:09:49Z</time>
      </trkpt>
      <trkpt lat="47.2294" lon="4.9568">
        <ele>424.845</ele>
        <time>2012-05-25T10:10:00Z</time>
      </trkpt>
      <trkpt lat="47.2293" lon="4.95683">
        <ele>420.986</ele>
        <time>2012-05-25T10:10:11Z</time>
      </trkpt>
      <trkpt lat="47.22923" lon="4.95685">
        <ele>417.926</ele>
        <time>2012-05-25T10:10:22Z</time>
      </trkpt>
      <trkpt lat="47.22918" lon="4.95687">
        <ele>416.832</ele>
        <time>2012-05-25T10:10:33Z</time>
      </trkpt>
      <trkpt lat="47.22912" lon="4.95688">
        <ele>414.316</ele>
        <time>2012-05-25T10:10:44Z</time>
      </trkpt>
      <trkpt lat="47.22908" lon="4.9569">
        <ele>413.637</ele>
        <time>2012-05-25T10:10:55Z</time>
      </trkpt>
      <trkpt lat="47.22903" lon="4.9569">
        <ele>411.818</ele>
        <time>2012-05-25T10:11:06Z</time>
      </trkpt>
      <trkpt lat="47.229" lon="4.9569">
        <ele>410.309</ele>
        <time>2012-05-25T10:11:17Z</time>
      </trkpt>
      <trkpt lat="47.22897" lon="4.95692">
        <ele>408.607</ele>
        <time>2012-05-25T10:11:28Z</time>
      </trkpt>
      <trkpt lat="47.22897" lon="4.9569">
        <ele>408.505</ele>
        <time>2012-05-25T10:11:39Z</time>
      </trkpt>
      <trkpt lat="47.2289" lon="4.95693">
        <ele>407.416</ele>
        <time>2012-05-25T10:11:50Z</time>
      </trkpt>
      <trkpt lat="47.22888" lon="4.95693">
        <ele>406.354</ele>
        <time>2012-05-25T10:12:01Z</time>
      </trkpt>
      <trkpt lat="47.22888" lon="4.95692">
        <ele>406.185</ele>
        <time>2012-05-25T10:12:12Z</time>
      </trkpt>
      <trkpt lat="47.22877" lon="4.95693">
        <ele>397.854</ele>
        <time>2012-05-25T10:12:23Z</time>
      </trkpt>
      <trkpt lat="47.22875" lon="4.95693">
        <ele>395.909</ele>
        <time>2012-05-25T10:12:34Z</time>
      </trkpt>
      <trkpt lat="47.22873" lon="4.95693">
        <ele>395.111</ele>
        <time>2012-05-25T10:12:45Z</time>
      </trkpt>
      <trkpt lat="47.22872" lon="4.95693">
        <ele>394.617</ele>
        <time>2012-05-25T10:12:56Z</time>
      </trkpt>
      <trkpt lat="47.22872" lon="4.95693">
        <ele>393.842</ele>
        <time>2012-05-25T10:13:07Z</time>
      </trkpt>
      <trkpt lat="47.2287" lon="4.95692">
        <ele>392.82</ele>
        <time>2012-05-25T10:13:18Z</time>
      </trkpt>
      <trkpt lat="47.22868" lon="4.95693">
        <ele>392.522</ele>
        <time>2012-05-25T10:13:29Z</time>
      </trkpt>
      <trkpt lat="47.22868" lon="4.95693">
        <ele>392.205</ele>
        <time>2012-05-25T10:13:40Z</time>
      </trkpt>
      <trkpt lat="47.22857" lon="4.95687">
        <ele>388.917</ele>
        <time>2012-05-25T10:13:51Z</time>
      </trkpt>
      <trkpt lat="47.22848" lon="4.95682">
        <ele>385.881</ele>
        <time>2012-05-25T10:14:02Z</time>
      </trkpt>
      <trkpt lat="47.22832" lon="4.95667">
        <ele>385.17</ele>
        <time>2012-05-25T10:14:13Z</time>
      </trkpt>
      <trkpt lat="47.2282" lon="4.95648">
        <ele>385.128</ele>
        <time>2012-05-25T10:14:24Z</time>
      </trkpt>
      <trkpt lat="47.22808" lon="4.9563">
        <ele>385.5</ele>
        <time>2012-05-25T10:14:35Z</time>
      </trkpt>
      <trkpt lat="47.228" lon="4.95615">
        <ele>384.938</ele>
        <time>2012-05-25T10:14:46Z</time>
      </trkpt>
      <trkpt lat="47.22788" lon="4.95612">
        <ele>376.612</ele>
        <time>2012-05-25T10:14:57Z</time>
      </trkpt>
      <trkpt lat="47.22778" lon="4.95598">
        <ele>373.381</ele>
        <time>2012-05-25T10:15:08Z</time>
      </trkpt>
      <trkpt lat="47.22772" lon="4.95582">
        <ele>373.481</ele>
        <time>2012-05-25T10:15:19Z</time>
      </trkpt>
      <trkpt lat="47.22768" lon="4.95562">
        <ele>372.829</ele>
        <time>2012-05-25T10:15:30Z</time>
      </trkpt>
      <trkpt lat="47.22762" lon="4.9554">
        <ele>373.976</ele>
        <time>2012-05-25T10:15:41Z</time>
      </trkpt>
      <trkpt lat="47.22755" lon="4.95518">
        <ele>374.655</ele>
        <time>2012-05-25T10:15:52Z</time>
      </trkpt>
      <trkpt lat="47.2275" lon="4.955">
        <ele>374.332</ele>
        <time>2012-05-25T10:16:03Z</time>
      </trkpt>
      <trkpt lat="47.22747" lon="4.95495">
        <ele>369.154</ele>
        <time>2012-05-25T10:16:14Z</time>
      </trkpt>
      <trkpt lat="47.2273" lon="4.95498">
        <ele>364.48</ele>
        <time>2012-05-25T10:16:25Z</time>
      </trkpt>
      <trkpt lat="47.22718" lon="4.95502">
        <ele>360.116</ele>
        <time>2012-05-25T10:16:36Z</time>
      </trkpt>
      <trkpt lat="47.22705" lon="4.95508">
        <ele>355.726</ele>
        <time>2012-05-25T10:16:47Z</time>
      </trkpt>
      <trkpt lat="47.22692" lon="4.95515">
        <ele>351.697</ele>
        <time>2012-05-25T10:16:58Z</time>
      </trkpt>
      <trkpt lat="47.22678" lon="4.9552">
        <ele>349.081</ele>
        <time>2012-05-25T10:17:09Z</time>
      </trkpt>
      <trkpt lat="47.2267" lon="4.95527">
        <ele>347.261</ele>
        <time>2012-05-25T10:17:20Z</time>
      </trkpt>
      <trkpt lat="47.22652" lon="4.95535">
        <ele>343.857</ele>
        <time>2012-05-25T10:17:31Z</time>
      </trkpt>
      <trkpt lat="47.22632" lon="4.9554">
        <ele>340.3</ele>
        <time>2012-05-25T10:17:42Z</time>
      </trkpt>
      <trkpt lat="47.22608" lon="4.95547">
        <ele>338.024</ele>
        <time>2012-05-25T10:17:53Z</time>
      </trkpt>
      <trkpt lat="47.22587" lon="4.95552">
        <ele>334.884</ele>
        <time>2012-05-25T10:18:04Z</time>
      </trkpt>
      <trkpt lat="47.22568" lon="4.95557">
        <ele>333.285</ele>
        <time>2012-05-25T10:18:15Z</time>
      </trkpt>
      <trkpt lat="47.22553" lon="4.95568">
        <ele>328.645</ele>
        <time>2012-05-25T10:18:26Z</time>
      </trkpt>
      <trkpt lat="47.22535" lon="4.95587">
        <ele>327.3</ele>
        <time>2012-05-25T10:18:37Z</time>
      </trkpt>
      <trkpt lat="47.22522" lon="4.956">
        <ele>322.354</ele>
        <time>2012-05-25T10:18:48Z</time>
      </trkpt>
      <trkpt lat="47.22503" lon="4.95615">
        <ele>317.121</ele>
        <time>2012-05-25T10:18:59Z</time>
      </trkpt>
      <trkpt lat="47.2249" lon="4.95625">
        <ele>314.693</ele>
        <time>2012-05-25T10:19:10Z</time>
      </trkpt>
      <trkpt lat="47.22477" lon="4.95637">
        <ele>312.403</ele>
        <time>2012-05-25T10:19:21Z</time>
      </trkpt>
      <trkpt lat="47.22463" lon="4.95623">
        <ele>310.201</ele>
        <time>2012-05-25T10:19:32Z</time>
      </trkpt>
      <trkpt lat="47.22455" lon="4.95603">
        <ele>310.541</ele>
        <time>2012-05-25T10:19:43Z</time>
      </trkpt>
      <trkpt lat="47.22447" lon="4.95582">
        <ele>312.947</ele>
        <time>2012-05-25T10:19:54Z</time>
      </trkpt>
      <trkpt lat="47.2244" lon="4.95567">
        <ele>315.697</ele>
        <time>2012-05-25T10:20:05Z</time>
      </trkpt>
      <trkpt lat="47.22432" lon="4.95562">
        <ele>317.769</ele>
        <time>2012-05-25T10:20:16Z</time>
      </trkpt>
      <trkpt lat="47.22418" lon="4.95562">
        <ele>317.35</ele>
        <time>2012-05-25T10:20:27Z</time>
      </trkpt>
      <trkpt lat="47.22412" lon="4.95563">
        <ele>316.405</ele>
        <time>2012-05-25T10:20:38Z</time>
      </trkpt>
      <trkpt lat="47.22413" lon="4.95562">
        <ele>315.916</ele>
        <time>2012-05-25T10:20:49Z</time>
      </trkpt>
      <trkpt lat="47.22413" lon="4.95562">
        <ele>315.916</ele>
        <time>2012-05-25T10:21:00Z</time>
      </trkpt>
      <trkpt lat="47.22413" lon="4.95562">
        <ele>315.664</ele>
        <time>2012-05-25T10:21:11Z</time>
      </trkpt>
      <trkpt lat="47.22413" lon="4.9556">
        <ele>315.189</ele>
        <time>2012-05-25T10:21:22Z</time>
      </trkpt>
      <trkpt lat="47.22413" lon="4.9556">
        <ele>315.309</ele>
        <time>2012-05-25T10:21:33Z</time>
      </trkpt>
      <trkpt lat="47.22413" lon="4.9556">
        <ele>315.35</ele>
        <time>2012-05-25T10:21:44Z</time>
      </trkpt>
      <trkpt lat="47.22413" lon="4.95562">
        <ele>315.665</ele>
        <time>2012-05-25T10:21:55Z</time>
      </trkpt>
      <trkpt lat="47.22413" lon="4.9556">
        <ele>315.533</ele>
        <time>2012-05-25T10:22:06Z</time>
      </trkpt>
      <trkpt lat="47.22412" lon="4.9556">
        <ele>315.951</ele>
        <time>2012-05-25T10:22:17Z</time>
      </trkpt>
      <trkpt lat="47.22412" lon="4.9556">
        <ele>315.951</ele>
        <time>2012-05-25T10:22:28Z</time>
      </trkpt>
      <trkpt lat="47.22412" lon="4.9556">
        <ele>317.151</ele>
        <time>2012-05-25T10:22:39Z</time>
      </trkpt>
      <trkpt lat="47.22412" lon="4.9556">
        <ele>317.392</ele>
        <time>2012-05-25T10:22:50Z</time>
      </trkpt>
      <trkpt lat="47.22412" lon="4.9556">
        <ele>317.262</ele>
        <time>2012-05-25T10:23:01Z</time>
      </trkpt>
      <trkpt lat="47.22412" lon="4.9556">
        <ele>317.388</ele>
        <time>2012-05-25T10:23:12Z</time>
      </trkpt>
    </trkseg>
  </trk>
</gpx>